Orland, Indiana
Current Conditions -  °F | °C
As of 1:55 AM on Wednesday 26 Nov 2014 (Local Time) from KANQ Reporting Station
Overcast Overcast  
Wind Chill: 25°   Ceiling: 1700
Heat Index: 25°   Visibility: 10mi
Dew Point: 12°   Wind: 0mph
Humidity: 59%   Direction: NA
Pressure: 30.16"   Gusts: NA
Location:  41.73°N, 85.17°W
Report Text: KANQ 260655Z AUTO 00000KT 10SM OVC017 M04/M11 A3016 RMK
Loading
Personal Weather Stations






























Interactive Weather Map New forecast layout! Learn more

10-Day Weather Forecast

Advertisements
Track Severe Weather on mobile